Time;durP1;ratioP1;P1;durP2;ratioP2;P2;SDS_P1;SDS_P2;PMS_P1;PMS_P2;Temp;Humidity;BMP_temperature;BMP_pressure;BME280_temperature;BME280_humidity;BME280_pressure;Samples;Min_cycle;Max_cycle;Signal;HPM_P1;HPM_P2
2022/09/14 00:00:16;;;;;;;;;9.00;9.00;;;;;24.55;50.01;100088.78;5118246;27;51956;-51
2022/09/14 00:02:42;;;;;;;;;11.00;8.25;;;;;24.54;49.78;100086.25;5125054;27;49722;-51
2022/09/14 00:05:07;;;;;;;;;8.00;8.00;;;;;24.54;50.39;100079.16;5131350;27;45234;-49
2022/09/14 00:07:32;;;;;;;;;10.75;9.50;;;;;24.55;50.11;100070.25;5122502;27;45183;-55
2022/09/14 00:09:58;;;;;;;;;10.75;9.00;;;;;24.55;50.26;100078.19;5118359;27;45360;-54
2022/09/14 00:12:23;;;;;;;;;8.00;8.00;;;;;24.54;49.86;100059.75;5117025;27;46534;-52
2022/09/14 00:14:49;;;;;;;;;8.00;8.00;;;;;24.55;50.25;100056.16;5116848;27;45337;-55
2022/09/14 00:17:14;;;;;;;;;9.25;9.25;;;;;24.55;49.82;100061.44;5117955;27;45158;-52
2022/09/14 00:19:39;;;;;;;;;10.00;8.50;;;;;24.54;50.44;100057.97;5118401;27;45315;-46
2022/09/14 00:22:05;;;;;;;;;9.00;7.50;;;;;24.54;50.11;100043.88;5117762;27;46549;-55
2022/09/14 00:24:31;;;;;;;;;8.50;7.50;;;;;24.53;49.95;100044.84;5118119;27;45246;-53
2022/09/14 00:26:57;;;;;;;;;10.25;8.75;;;;;24.54;49.86;100039.44;5117152;27;45357;-54
2022/09/14 00:29:22;;;;;;;;;7.75;7.75;;;;;24.53;50.00;100042.19;5118559;27;45576;-47
2022/09/14 00:31:48;;;;;;;;;8.00;8.00;;;;;24.54;50.00;100038.56;5118230;27;46526;-55
2022/09/14 00:34:15;;;;;;;;;7.50;7.50;;;;;24.53;50.31;100036.88;5117844;27;47495;-53
2022/09/14 00:36:44;;;;;;;;;9.00;9.00;;;;;24.54;50.56;100028.81;5118055;27;45475;-47
2022/09/14 00:39:10;;;;;;;;;7.50;7.25;;;;;24.53;50.43;100026.28;5117773;27;45617;-47
2022/09/14 00:41:37;;;;;;;;;7.25;7.25;;;;;24.53;49.99;100015.69;5116649;27;46234;-48
2022/09/14 00:44:10;;;;;;;;;11.50;8.00;;;;;24.54;49.89;100010.28;5117545;27;45395;-46
2022/09/14 00:46:44;;;;;;;;;9.25;8.00;;;;;24.52;50.51;100003.44;5118740;27;45170;-48
2022/09/14 00:49:14;;;;;;;;;9.25;7.00;;;;;24.52;50.59;100004.28;5118583;27;45230;-46
2022/09/14 00:51:46;;;;;;;;;6.25;6.25;;;;;24.51;50.80;99993.81;5121717;27;45478;-48
2022/09/14 00:54:12;;;;;;;;;8.00;5.00;;;;;24.52;50.14;99987.56;5121967;27;45375;-47
2022/09/14 00:56:37;;;;;;;;;6.25;6.25;;;;;24.51;50.37;99978.75;5127679;27;45356;-46
2022/09/14 00:59:12;;;;;;;;;7.00;7.00;;;;;24.52;50.25;99982.25;5121557;27;45259;-55
2022/09/14 01:01:37;;;;;;;;;8.75;7.00;;;;;24.51;50.64;99983.22;5117883;27;46370;-56
2022/09/14 01:04:03;;;;;;;;;7.00;7.00;;;;;24.52;50.87;99979.59;5117437;27;45454;-55
2022/09/14 01:06:41;;;;;;;;;8.00;6.75;;;;;24.52;50.59;99969.00;5097493;27;45442;-56
2022/09/14 01:09:25;;;;;;;;;8.00;8.00;;;;;24.50;50.77;99963.81;5097526;27;45420;-55
2022/09/14 01:11:53;;;;;;;;;7.50;7.50;;;;;24.51;50.65;99959.38;5096540;27;45455;-55
2022/09/14 01:14:31;;;;;;;;;7.00;6.00;;;;;24.51;50.41;99951.44;5098034;27;45752;-56
2022/09/14 01:17:28;;;;;;;;;7.00;6.75;;;;;24.51;50.90;99946.13;5097590;27;45295;-55
2022/09/14 01:20:14;;;;;;;;;8.25;8.00;;;;;24.50;50.46;99963.00;5097887;27;45380;-55
2022/09/14 01:22:57;;;;;;;;;7.00;7.00;;;;;24.50;50.23;99945.28;5099260;27;45701;-56
2022/09/14 01:25:55;;;;;;;;;6.00;5.75;;;;;24.51;50.51;99940.84;5102721;27;45408;-51
2022/09/14 01:28:39;;;;;;;;;8.75;7.50;;;;;24.51;50.91;99938.19;5092674;28;45263;-54
2022/09/14 01:31:14;;;;;;;;;5.50;5.50;;;;;24.50;50.74;99934.69;5097486;28;44697;-55
2022/09/14 01:33:50;;;;;;;;;7.00;7.00;;;;;24.51;50.60;99943.50;5097424;28;46647;-54
2022/09/14 01:36:17;;;;;;;;;7.25;7.25;;;;;24.51;50.13;99946.97;5095868;28;45255;-54
2022/09/14 01:38:47;;;;;;;;;7.00;5.75;;;;;24.51;50.80;99946.97;5096556;27;45266;-49
2022/09/14 01:41:17;;;;;;;;;7.50;5.75;;;;;24.52;50.42;99950.47;5109647;27;45404;-50
2022/09/14 01:43:45;;;;;;;;;6.50;6.50;;;;;24.52;50.35;99942.53;5115317;27;45294;-50
2022/09/14 01:46:16;;;;;;;;;7.25;7.25;;;;;24.52;50.90;99951.28;5114007;27;44962;-46
2022/09/14 01:48:48;;;;;;;;;5.25;5.25;;;;;24.52;50.90;99953.94;5118037;27;44708;-48
2022/09/14 01:51:20;;;;;;;;;6.75;6.75;;;;;24.52;50.59;99967.19;5108706;27;45434;-47
2022/09/14 01:53:51;;;;;;;;;4.75;4.75;;;;;24.52;50.59;99971.66;5105176;27;46572;-51
2022/09/14 01:56:25;;;;;;;;;6.25;6.25;;;;;24.52;50.44;99966.38;5099287;27;45652;-52
2022/09/14 01:59:03;;;;;;;;;6.00;5.50;;;;;24.52;51.09;99961.06;5098765;27;45340;-50
2022/09/14 02:01:45;;;;;;;;;7.00;7.00;;;;;24.52;50.76;99951.28;5098035;27;45410;-50
2022/09/14 02:04:14;;;;;;;;;6.75;6.00;;;;;24.52;50.74;99937.22;5097918;27;47502;-50
2022/09/14 02:06:44;;;;;;;;;6.50;5.50;;;;;24.50;50.87;99931.22;5097555;27;45788;-46
2022/09/14 02:09:15;;;;;;;;;6.00;5.25;;;;;24.51;50.62;99930.25;5099728;27;45405;-51
2022/09/14 02:11:40;;;;;;;;;8.50;6.25;;;;;24.51;51.05;99932.91;5099030;27;45439;-47
2022/09/14 02:14:05;;;;;;;;;6.50;6.50;;;;;24.50;50.54;99928.56;5099580;27;45471;-48
2022/09/14 02:16:31;;;;;;;;;5.50;5.50;;;;;24.51;51.12;99930.25;5118553;27;45169;-49
2022/09/14 02:19:00;;;;;;;;;5.00;5.00;;;;;24.51;51.16;99930.25;5104042;27;45252;-49
2022/09/14 02:21:28;;;;;;;;;6.50;5.00;;;;;24.51;50.71;99924.94;5100100;27;45336;-47
2022/09/14 02:23:54;;;;;;;;;7.25;6.00;;;;;24.50;50.61;99932.03;5098989;27;45341;-49
2022/09/14 02:26:21;;;;;;;;;7.00;6.00;;;;;24.51;50.64;99948.78;5098745;27;45187;-53
2022/09/14 02:28:47;;;;;;;;;6.25;6.00;;;;;24.51;50.75;99954.91;5099460;27;45558;-49
2022/09/14 02:31:51;;;;;;;;;5.25;5.25;;;;;24.51;51.13;99964.69;5099768;27;45388;-50
2022/09/14 02:34:19;;;;;;;;;5.75;5.75;;;;;24.52;51.26;99966.38;5104474;27;47344;-48
2022/09/14 02:36:53;;;;;;;;;6.00;6.00;;;;;24.51;50.75;99960.22;5116391;27;45302;-49
2022/09/14 02:39:24;;;;;;;;;8.00;7.00;;;;;24.51;51.12;99954.09;5100859;27;45398;-52
2022/09/14 02:42:07;;;;;;;;;6.00;6.00;;;;;24.52;51.05;99950.47;5093161;27;45591;-49
2022/09/14 02:44:42;;;;;;;;;6.25;6.25;;;;;24.52;51.07;99961.06;5122875;27;45580;-50
2022/09/14 02:48:14;;;;;;;;;5.50;5.00;;;;;24.51;51.17;99959.38;5120515;27;45025;-49
2022/09/14 02:50:50;;;;;;;;;7.25;5.25;;;;;24.51;51.17;99954.91;5016873;28;45516;-48
2022/09/14 02:53:20;;;;;;;;;5.00;5.00;;;;;24.52;50.67;99959.25;5016656;28;45387;-49
2022/09/14 02:55:50;;;;;;;;;7.00;7.00;;;;;24.52;50.70;99956.59;5050817;28;45424;-47
2022/09/14 02:58:16;;;;;;;;;4.00;4.00;;;;;24.52;50.91;99956.59;5079404;28;45830;-48
2022/09/14 03:00:46;;;;;;;;;5.00;5.00;;;;;24.52;50.63;99961.88;5084556;27;45413;-51
2022/09/14 03:03:15;;;;;;;;;5.50;5.50;;;;;24.53;50.40;99952.13;5092477;28;45165;-47
2022/09/14 03:05:40;;;;;;;;;2.00;1.00;;;;;24.53;50.95;99952.13;5092022;28;45366;-48
2022/09/14 03:08:07;;;;;;;;;6.00;4.00;;;;;24.53;50.64;99965.38;5080534;27;45351;-47
2022/09/14 03:10:33;;;;;;;;;6.75;3.75;;;;;24.51;50.54;99954.91;5093379;27;45246;-49
2022/09/14 03:12:58;;;;;;;;;6.00;6.00;;;;;24.52;50.93;99955.78;5102064;27;45591;-50
2022/09/14 03:15:25;;;;;;;;;5.50;5.00;;;;;24.52;50.54;99948.66;5101488;27;46357;-46
2022/09/14 03:17:50;;;;;;;;;6.25;6.25;;;;;24.51;51.12;99944.31;5098488;27;45417;-48
2022/09/14 03:20:19;;;;;;;;;6.00;6.00;;;;;24.53;50.46;99954.78;5098720;27;45181;-46
2022/09/14 03:22:45;;;;;;;;;6.00;5.50;;;;;24.51;51.11;99957.56;5098732;27;45418;-48
2022/09/14 03:25:11;;;;;;;;;6.75;6.00;;;;;24.52;51.07;99939.88;5097016;27;45588;-47
2022/09/14 03:27:36;;;;;;;;;8.00;5.50;;;;;24.51;50.60;99946.13;5098203;27;45435;-48
2022/09/14 03:30:04;;;;;;;;;4.00;4.00;;;;;24.51;50.70;99960.22;5097913;27;51027;-46
2022/09/14 03:32:29;;;;;;;;;6.25;6.25;;;;;24.52;50.57;99955.78;5098756;27;45213;-46
2022/09/14 03:34:55;;;;;;;;;5.00;5.00;;;;;24.52;50.72;99951.28;5098458;27;45422;-46
2022/09/14 03:37:20;;;;;;;;;6.00;6.00;;;;;24.54;50.77;99940.56;5118339;27;44930;-48
2022/09/14 03:39:46;;;;;;;;;5.00;5.00;;;;;24.52;50.55;99934.56;5100749;27;45237;-49
2022/09/14 03:42:11;;;;;;;;;4.33;4.33;;;;;24.51;50.85;99931.06;5097555;27;54533;-48
2022/09/14 03:44:36;;;;;;;;;8.00;6.00;;;;;24.51;50.78;99933.72;5097800;27;51955;-49
2022/09/14 03:47:02;;;;;;;;;8.00;5.00;;;;;24.51;50.48;99932.91;5097183;27;58908;-48
2022/09/14 03:49:27;;;;;;;;;6.00;4.75;;;;;24.52;50.99;99939.88;5098430;27;45714;-46
2022/09/14 03:51:52;;;;;;;;;8.25;4.25;;;;;24.51;50.34;99946.13;5097927;27;45642;-46
2022/09/14 03:54:18;;;;;;;;;4.50;4.50;;;;;24.51;50.51;99957.56;5097340;27;46307;-47
2022/09/14 03:56:43;;;;;;;;;5.00;5.00;;;;;24.52;50.92;99966.38;5097318;27;63780;-49
2022/09/14 03:59:09;;;;;;;;;7.00;6.00;;;;;24.52;50.92;99961.06;5097769;27;45402;-45
2022/09/14 04:01:34;;;;;;;;;4.25;4.25;;;;;24.50;51.14;99947.94;5098056;27;45501;-47
2022/09/14 04:04:00;;;;;;;;;6.75;5.00;;;;;24.52;50.65;99955.78;5097008;27;46083;-52
2022/09/14 04:06:25;;;;;;;;;4.00;4.00;;;;;24.51;50.66;99936.38;5097550;27;45396;-50
2022/09/14 04:08:51;;;;;;;;;8.25;6.00;;;;;24.52;51.18;99926.63;5097200;27;45394;-48
2022/09/14 04:11:21;;;;;;;;;6.00;5.00;;;;;24.51;50.51;99928.41;5097622;27;45589;-48
2022/09/14 04:13:47;;;;;;;;;5.00;5.00;;;;;24.51;51.19;99925.78;5097216;27;46527;-47
2022/09/14 04:16:13;;;;;;;;;4.00;4.00;;;;;24.52;50.59;99916.84;5097340;27;45389;-45
2022/09/14 04:18:39;;;;;;;;;5.75;5.75;;;;;24.52;50.64;99924.81;5097401;27;45439;-47
2022/09/14 04:21:08;;;;;;;;;4.75;4.75;;;;;24.51;50.91;99931.06;5097519;27;45547;-47
2022/09/14 04:23:33;;;;;;;;;6.00;6.00;;;;;24.52;51.05;99918.69;5101269;27;45495;-48
2022/09/14 04:25:59;;;;;;;;;5.00;4.00;;;;;24.51;51.04;99917.81;5102520;27;45198;-48
2022/09/14 04:28:25;;;;;;;;;5.25;4.75;;;;;24.52;51.00;99924.81;5099045;27;45244;-48
2022/09/14 04:30:59;;;;;;;;;4.50;4.50;;;;;24.53;51.01;99920.34;5097518;27;45646;-47
2022/09/14 04:33:25;;;;;;;;;4.00;4.00;;;;;24.53;51.02;99904.44;5097109;27;46314;-50
2022/09/14 04:36:01;;;;;;;;;5.00;5.00;;;;;24.52;50.87;99910.75;5097245;27;45831;-47
2022/09/14 04:38:28;;;;;;;;;6.00;4.00;;;;;24.53;50.57;99912.38;5096655;27;45362;-46
2022/09/14 04:40:54;;;;;;;;;5.75;5.75;;;;;24.52;51.08;99906.25;5097167;27;45330;-53
2022/09/14 04:43:19;;;;;;;;;6.75;5.00;;;;;24.52;50.99;99908.91;5097491;27;45321;-49
2022/09/14 04:45:44;;;;;;;;;6.25;5.00;;;;;24.52;50.59;99914.22;5096092;27;61155;-49
2022/09/14 04:48:10;;;;;;;;;5.00;5.00;;;;;24.53;50.82;99915.03;5096677;27;45271;-46
2022/09/14 04:50:35;;;;;;;;;4.75;4.75;;;;;24.53;50.78;99915.03;5097281;27;45381;-48
2022/09/14 04:53:01;;;;;;;;;5.00;5.00;;;;;24.52;50.67;99916.03;5096046;27;53180;-47
2022/09/14 04:55:26;;;;;;;;;6.00;4.50;;;;;24.53;50.39;99915.03;5096003;27;45440;-49
2022/09/14 04:57:52;;;;;;;;;8.25;4.75;;;;;24.53;50.93;99909.75;5113685;27;45372;-46
2022/09/14 05:00:17;;;;;;;;;8.25;6.25;;;;;24.53;50.60;99904.44;5104740;27;45325;-47
2022/09/14 05:02:43;;;;;;;;;6.25;5.25;;;;;24.53;50.47;99904.44;5096810;27;45264;-47
2022/09/14 05:05:08;;;;;;;;;5.50;5.50;;;;;24.53;50.85;99899.13;5078765;27;45267;-47
2022/09/14 05:07:34;;;;;;;;;4.25;4.25;;;;;24.53;50.43;99904.44;5096733;27;45365;-47
2022/09/14 05:09:59;;;;;;;;;6.25;5.00;;;;;24.53;50.15;99893.84;5096600;27;45434;-45
2022/09/14 05:12:24;;;;;;;;;4.75;4.75;;;;;24.54;50.19;99890.22;5100404;27;50104;-53
2022/09/14 05:14:50;;;;;;;;;5.00;5.00;;;;;24.53;50.32;99885.91;5105395;27;45151;-49
2022/09/14 05:17:16;;;;;;;;;6.00;4.75;;;;;24.53;50.36;99883.25;5102484;27;45377;-46
2022/09/14 05:19:41;;;;;;;;;5.00;5.00;;;;;24.54;50.79;99876.97;5105909;27;45164;-46
2022/09/14 05:22:06;;;;;;;;;4.25;4.25;;;;;24.53;50.56;99872.66;5098841;27;47068;-48
2022/09/14 05:24:32;;;;;;;;;3.25;3.00;;;;;24.53;50.26;99877.94;5109439;27;52386;-46
2022/09/14 05:26:57;;;;;;;;;4.25;4.00;;;;;24.54;50.71;99874.34;5120130;27;44783;-48
2022/09/14 05:29:22;;;;;;;;;6.00;5.00;;;;;24.54;50.76;99880.47;5108277;27;45457;-50
2022/09/14 05:31:48;;;;;;;;;4.25;4.00;;;;;24.53;50.99;99878.81;5103663;27;61169;-45
2022/09/14 05:34:13;;;;;;;;;4.00;4.00;;;;;24.55;50.30;99878.66;5115432;27;45266;-49
2022/09/14 05:36:39;;;;;;;;;6.00;4.50;;;;;24.54;50.79;99879.63;5102962;27;45606;-46
2022/09/14 05:39:06;;;;;;;;;4.00;4.00;;;;;24.52;50.74;99866.53;5115354;27;45326;-51
2022/09/14 05:41:31;;;;;;;;;4.75;4.75;;;;;24.53;50.71;99873.50;5102816;27;46605;-50
2022/09/14 05:43:59;;;;;;;;;4.50;4.25;;;;;24.53;50.27;99872.66;5109445;27;45444;-49
2022/09/14 05:46:25;;;;;;;;;3.25;3.25;;;;;24.53;50.30;99877.94;5104429;27;45282;-48
2022/09/14 05:48:50;;;;;;;;;3.50;3.50;;;;;24.54;51.14;99885.78;5105628;27;46169;-48
2022/09/14 05:51:19;;;;;;;;;5.00;5.00;;;;;24.54;50.56;99895.53;5100355;27;46332;-51
2022/09/14 05:53:51;;;;;;;;;4.50;4.50;;;;;24.53;50.95;99894.69;5099362;27;45546;-47
2022/09/14 05:56:18;;;;;;;;;4.00;3.75;;;;;24.53;50.41;99892.06;5100471;27;45297;-46
2022/09/14 05:58:44;;;;;;;;;5.50;5.00;;;;;24.54;50.60;99896.38;5099909;27;45520;-47
2022/09/14 06:01:11;;;;;;;;;4.25;4.00;;;;;24.53;50.69;99907.09;5098080;27;48147;-45
2022/09/14 06:03:37;;;;;;;;;4.50;4.50;;;;;24.53;51.03;99909.75;5098925;27;47838;-48
2022/09/14 06:06:04;;;;;;;;;4.00;4.00;;;;;24.54;50.62;99909.63;5099463;27;45524;-47
2022/09/14 06:08:30;;;;;;;;;5.00;3.00;;;;;24.55;50.55;99907.78;5098923;27;45376;-45
2022/09/14 06:10:56;;;;;;;;;4.25;4.25;;;;;24.52;51.10;99903.63;5099304;27;46119;-47
2022/09/14 06:13:24;;;;;;;;;4.25;4.25;;;;;24.54;50.57;99892.88;5099828;27;45302;-47
2022/09/14 06:15:49;;;;;;;;;4.50;4.50;;;;;24.53;50.41;99899.13;5099260;27;45373;-46
2022/09/14 06:18:14;;;;;;;;;4.00;4.00;;;;;24.54;50.88;99896.38;5102263;27;45538;-46
2022/09/14 06:20:48;;;;;;;;;4.00;4.00;;;;;24.54;51.03;99896.38;5101946;27;46191;-50
2022/09/14 06:23:14;;;;;;;;;6.75;4.00;;;;;24.55;50.70;99897.19;5095991;27;45410;-48
2022/09/14 06:25:39;;;;;;;;;3.00;3.00;;;;;24.54;50.70;99893.72;5097495;27;45319;-47
2022/09/14 06:28:04;;;;;;;;;5.00;4.00;;;;;24.56;50.75;99909.47;5098938;27;46325;-47
2022/09/14 06:30:29;;;;;;;;;4.50;4.50;;;;;24.56;50.55;99904.19;5098713;27;47646;-47
2022/09/14 06:32:55;;;;;;;;;5.75;4.00;;;;;24.57;50.76;99908.50;5098661;27;54211;-46
2022/09/14 06:35:21;;;;;;;;;5.75;5.00;;;;;24.56;50.89;99912.13;5099318;27;45420;-47
2022/09/14 06:37:46;;;;;;;;;5.50;3.00;;;;;24.57;50.79;99908.50;5097837;27;45468;-49
2022/09/14 06:40:11;;;;;;;;;4.50;4.50;;;;;24.57;50.83;99900.56;5098527;27;46136;-47
2022/09/14 06:42:36;;;;;;;;;4.00;4.00;;;;;24.57;50.81;99895.25;5098586;27;45491;-47
2022/09/14 06:45:03;;;;;;;;;4.50;4.00;;;;;24.57;50.23;99902.38;5098362;27;49787;-47
2022/09/14 06:47:31;;;;;;;;;5.50;4.25;;;;;24.56;50.54;99901.53;5099009;27;45627;-47
2022/09/14 06:49:57;;;;;;;;;4.00;4.00;;;;;24.57;50.36;99905.84;5098918;27;46143;-48
2022/09/14 06:52:23;;;;;;;;;4.00;4.00;;;;;24.57;50.47;99905.84;5097493;27;45615;-47
2022/09/14 06:54:48;;;;;;;;;5.00;4.75;;;;;24.56;50.94;99917.44;5098636;27;45446;-47
2022/09/14 06:57:14;;;;;;;;;4.50;4.50;;;;;24.57;50.88;99927.06;5098725;27;45315;-46
2022/09/14 06:59:39;;;;;;;;;6.75;4.00;;;;;24.57;50.29;99926.22;5098314;27;46687;-46
2022/09/14 07:02:05;;;;;;;;;4.00;4.00;;;;;24.58;50.15;99928.72;5097361;27;45463;-47
2022/09/14 07:04:30;;;;;;;;;4.50;4.25;;;;;24.59;50.49;99927.75;5098435;27;45429;-47
2022/09/14 07:06:56;;;;;;;;;5.50;5.00;;;;;24.59;50.44;99925.13;5098306;27;45311;-49
2022/09/14 07:09:21;;;;;;;;;5.25;4.75;;;;;24.60;50.50;99921.50;5098314;27;51592;-45
2022/09/14 07:11:48;;;;;;;;;5.00;4.00;;;;;24.60;50.69;99916.19;5098350;27;45428;-46
2022/09/14 07:14:13;;;;;;;;;7.00;5.00;;;;;24.61;50.98;99917.88;5098937;27;45482;-48
2022/09/14 07:16:39;;;;;;;;;4.50;4.50;;;;;24.61;50.52;99917.88;5098435;27;45554;-48
2022/09/14 07:19:08;;;;;;;;;5.50;4.75;;;;;24.61;50.65;99912.56;5098791;27;46227;-46
2022/09/14 07:21:34;;;;;;;;;6.75;4.50;;;;;24.61;50.71;99917.88;5097679;27;45332;-49
2022/09/14 07:24:00;;;;;;;;;5.00;2.25;;;;;24.62;51.00;99916.91;5099166;27;45352;-47
2022/09/14 07:26:28;;;;;;;;;5.25;4.00;;;;;24.63;50.67;99920.38;5099936;27;45530;-47
2022/09/14 07:28:59;;;;;;;;;5.00;4.00;;;;;24.62;50.80;99919.56;5099221;27;46445;-47
2022/09/14 07:31:31;;;;;;;;;6.00;5.00;;;;;24.63;50.38;99925.69;5103166;27;45661;-48
2022/09/14 07:33:58;;;;;;;;;3.75;3.75;;;;;24.62;50.41;99924.84;5111689;27;45215;-46
2022/09/14 07:36:26;;;;;;;;;5.25;5.25;;;;;24.63;51.19;99926.53;5106058;27;45268;-46
2022/09/14 07:38:52;;;;;;;;;5.00;4.50;;;;;24.63;50.76;99930.97;5115654;27;47203;-46
2022/09/14 07:41:17;;;;;;;;;5.50;4.75;;;;;24.63;50.79;99931.84;5109535;27;45724;-48
2022/09/14 07:43:43;;;;;;;;;5.75;4.50;;;;;24.63;50.61;99934.47;5100663;27;45196;-46
2022/09/14 07:46:08;;;;;;;;;5.00;4.75;;;;;24.63;50.90;99939.78;5103135;27;45800;-49
2022/09/14 07:48:35;;;;;;;;;6.25;5.00;;;;;24.64;51.02;99938.78;5099314;27;46202;-53
2022/09/14 07:51:03;;;;;;;;;3.50;3.50;;;;;24.65;50.57;99940.47;5099296;27;45318;-45
2022/09/14 07:53:29;;;;;;;;;5.00;5.00;;;;;24.65;50.50;99942.28;5106925;27;45396;-49
2022/09/14 07:55:59;;;;;;;;;6.00;5.00;;;;;24.65;50.97;99948.41;5111388;27;44959;-50
2022/09/14 07:58:25;;;;;;;;;7.50;4.75;;;;;24.66;51.13;99944.78;5105177;27;46593;-53
2022/09/14 08:00:50;;;;;;;;;5.00;5.00;;;;;24.67;50.95;99958.91;5097690;27;45754;-52
2022/09/14 08:03:15;;;;;;;;;5.00;5.00;;;;;24.67;51.21;99962.38;5096983;27;50463;-54
2022/09/14 08:05:41;;;;;;;;;5.00;5.00;;;;;24.67;50.50;99965.03;5096333;27;45502;-52
2022/09/14 08:08:06;;;;;;;;;4.00;4.00;;;;;24.67;50.75;99964.19;5094616;27;47311;-48
2022/09/14 08:10:34;;;;;;;;;5.75;4.25;;;;;24.67;51.05;99972.97;5097276;27;45350;-51
2022/09/14 08:12:59;;;;;;;;;4.00;3.75;;;;;24.68;50.95;99979.97;5098036;27;45442;-51
2022/09/14 08:15:24;;;;;;;;;6.00;5.00;;;;;24.68;50.61;99977.31;5096940;27;45612;-53
2022/09/14 08:17:50;;;;;;;;;6.00;4.00;;;;;24.69;50.57;99979.00;5097137;27;46248;-53
2022/09/14 08:20:15;;;;;;;;;7.75;5.25;;;;;24.70;51.08;99991.28;5097297;27;52088;-54
2022/09/14 08:22:44;;;;;;;;;5.50;5.00;;;;;24.69;50.67;100000.22;5094084;27;45358;-52
2022/09/14 08:25:11;;;;;;;;;4.25;4.25;;;;;24.70;51.01;100001.88;5097710;27;45497;-48
2022/09/14 08:27:36;;;;;;;;;7.50;4.00;;;;;24.73;50.97;100007.91;5096874;27;46562;-56
2022/09/14 08:30:02;;;;;;;;;4.50;4.00;;;;;24.73;50.87;100010.53;5097245;27;45335;-54
2022/09/14 08:32:27;;;;;;;;;4.75;4.75;;;;;24.72;51.11;100004.38;5098122;27;45334;-48
2022/09/14 08:34:53;;;;;;;;;5.00;5.00;;;;;24.73;51.17;100006.06;5097669;27;45554;-50
2022/09/14 08:37:18;;;;;;;;;5.00;4.50;;;;;24.73;50.98;100005.25;5096360;27;45402;-53
2022/09/14 08:39:44;;;;;;;;;6.00;4.75;;;;;24.75;50.90;100008.59;5097250;27;45313;-53
2022/09/14 08:42:17;;;;;;;;;4.00;4.00;;;;;24.75;50.97;100008.59;5097913;27;45436;-50
2022/09/14 08:44:49;;;;;;;;;4.50;4.00;;;;;24.74;50.93;100006.94;5096084;27;45581;-48
2022/09/14 08:47:25;;;;;;;;;4.50;4.50;;;;;24.76;50.58;100010.25;5097830;27;45406;-48
2022/09/14 08:49:56;;;;;;;;;7.25;4.00;;;;;24.75;50.54;100012.09;5096938;27;45683;-52
2022/09/14 08:52:53;;;;;;;;;5.75;5.00;;;;;24.74;50.83;100007.75;5096863;27;45284;-51
2022/09/14 08:55:55;;;;;;;;;5.25;4.00;;;;;24.73;50.94;100007.91;5098353;27;45388;-51
2022/09/14 08:58:39;;;;;;;;;6.50;5.00;;;;;24.75;50.86;100021.84;5110384;27;46775;-55
2022/09/14 09:01:36;;;;;;;;;4.50;4.25;;;;;24.75;51.18;100024.50;5101618;27;45343;-54
2022/09/14 09:04:10;;;;;;;;;8.25;4.50;;;;;24.75;51.21;100020.03;5098691;27;45327;-52
2022/09/14 09:06:59;;;;;;;;;4.00;4.00;;;;;24.73;50.86;100019.31;5098262;27;45513;-54
2022/09/14 09:09:43;;;;;;;;;6.00;4.00;;;;;24.75;51.33;100019.22;5100261;27;46294;-54
2022/09/14 09:12:32;;;;;;;;;7.25;5.00;;;;;24.73;51.15;100018.50;5105413;27;45635;-56
2022/09/14 09:15:00;;;;;;;;;5.75;5.25;;;;;24.75;51.05;100024.50;5109489;27;45370;-53
2022/09/14 09:17:45;;;;;;;;;4.75;4.00;;;;;24.77;50.59;100017.25;5114670;27;45298;-53
2022/09/14 09:20:25;;;;;;;;;4.25;4.25;;;;;24.78;50.65;100024.22;5115296;27;46136;-53
2022/09/14 09:23:03;;;;;;;;;5.00;5.00;;;;;24.78;51.19;100018.91;5115858;27;45007;-53
2022/09/14 09:25:44;;;;;;;;;4.25;4.00;;;;;24.79;50.64;100020.59;5115206;27;45292;-52
2022/09/14 09:28:12;;;;;;;;;3.25;3.25;;;;;24.80;51.20;100028.44;5118754;27;44942;-48
2022/09/14 09:30:39;;;;;;;;;4.50;4.50;;;;;24.81;50.73;100021.31;5117949;27;45252;-49
2022/09/14 09:33:04;;;;;;;;;6.00;4.75;;;;;24.81;50.93;100018.66;5116298;27;44988;-48
2022/09/14 09:35:31;;;;;;;;;3.75;3.75;;;;;24.81;50.79;100019.50;5097491;27;44880;-48
2022/09/14 09:37:56;;;;;;;;;4.00;4.00;;;;;24.82;51.08;100020.34;5109645;27;45250;-51
2022/09/14 09:40:31;;;;;;;;;3.75;3.75;;;;;24.82;50.61;100017.69;5099823;27;45413;-49
2022/09/14 09:43:14;;;;;;;;;5.25;3.50;;;;;24.82;50.52;100015.03;5101341;27;45275;-47
2022/09/14 09:45:48;;;;;;;;;6.50;4.75;;;;;24.83;51.23;100022.03;5100310;27;45288;-53
2022/09/14 09:48:16;;;;;;;;;7.25;5.25;;;;;24.83;50.58;100029.97;5099624;27;45464;-52
2022/09/14 09:50:58;;;;;;;;;4.25;4.25;;;;;24.82;50.66;100028.28;5101024;27;46311;-54
2022/09/14 09:53:24;;;;;;;;;5.00;4.75;;;;;24.81;51.31;100023.97;5096429;27;45752;-55
2022/09/14 09:55:49;;;;;;;;;4.25;4.25;;;;;24.80;50.41;100012.53;5096084;27;45256;-56
2022/09/14 09:58:37;;;;;;;;;3.25;3.00;;;;;24.82;50.43;100009.75;5096442;27;45408;-51
2022/09/14 10:01:20;;;;;;;;;5.75;5.00;;;;;24.82;51.12;100013.22;5096155;27;46390;-47
2022/09/14 10:04:16;;;;;;;;;3.25;3.25;;;;;24.82;50.36;100005.28;5095826;27;45409;-55
2022/09/14 10:06:50;;;;;;;;;5.50;4.00;;;;;24.83;50.54;100000.81;5095185;27;45242;-55
2022/09/14 10:09:25;;;;;;;;;4.50;4.50;;;;;24.84;51.15;99990.06;5096096;27;45560;-47
2022/09/14 10:12:02;;;;;;;;;4.50;4.50;;;;;24.85;50.94;99993.59;5095521;27;47033;-50
2022/09/14 10:14:33;;;;;;;;;3.25;3.25;;;;;24.87;50.72;99991.63;5096537;27;45249;-47
2022/09/14 10:17:05;;;;;;;;;4.50;4.50;;;;;24.87;50.87;99986.31;5098969;27;45379;-47
2022/09/14 10:19:31;;;;;;;;;5.25;4.50;;;;;24.87;50.75;99983.66;5114516;27;45150;-48
2022/09/14 10:22:19;;;;;;;;;6.00;4.00;;;;;24.89;50.41;99987.03;5097188;27;46423;-49
2022/09/14 10:25:02;;;;;;;;;5.75;5.75;;;;;24.88;51.03;99982.69;5095422;27;45932;-52
2022/09/14 10:27:40;;;;;;;;;7.75;5.00;;;;;24.88;51.08;99981.88;5097197;27;45489;-52
2022/09/14 10:30:12;;;;;;;;;4.25;4.00;;;;;24.88;50.48;99982.69;5102150;27;45365;-55
2022/09/14 10:32:41;;;;;;;;;4.50;4.50;;;;;24.90;51.01;99972.81;5098941;27;46400;-50
2022/09/14 10:35:12;;;;;;;;;4.50;4.50;;;;;24.89;50.54;99972.94;5098476;27;45320;-51
2022/09/14 10:37:59;;;;;;;;;4.00;4.00;;;;;24.90;50.99;99971.97;5098803;27;45470;-51
2022/09/14 10:40:35;;;;;;;;;5.00;5.00;;;;;24.90;51.01;99964.84;5099285;27;45373;-52
2022/09/14 10:43:13;;;;;;;;;4.00;4.00;;;;;24.91;51.05;99958.56;5098995;27;45403;-48
2022/09/14 10:45:44;;;;;;;;;4.00;4.00;;;;;24.91;50.24;99944.50;5098446;27;45413;-50
2022/09/14 10:48:42;;;;;;;;;3.25;3.25;;;;;24.93;50.84;99948.69;5099096;27;45322;-50
2022/09/14 10:51:32;;;;;;;;;6.00;4.00;;;;;24.93;50.42;99943.38;5097919;27;45274;-50
2022/09/14 10:54:22;;;;;;;;;3.75;3.25;;;;;24.93;50.81;99947.81;5098658;27;46511;-55
2022/09/14 10:57:03;;;;;;;;;5.00;5.00;;;;;24.93;50.27;99943.38;5098562;27;45803;-45
2022/09/14 10:59:37;;;;;;;;;3.25;3.25;;;;;24.90;50.79;99933.03;5098896;27;45440;-48
2022/09/14 11:02:35;;;;;;;;;4.25;4.00;;;;;24.93;51.00;99938.09;5099113;27;45408;-50
2022/09/14 11:05:07;;;;;;;;;4.25;4.00;;;;;24.94;50.29;99931.81;5097590;27;46309;-48
2022/09/14 11:07:58;;;;;;;;;4.00;4.00;;;;;24.93;50.94;99938.09;5097943;27;45325;-47
2022/09/14 11:10:39;;;;;;;;;7.75;4.75;;;;;24.94;50.74;99934.47;5088563;27;45352;-52
2022/09/14 11:13:23;;;;;;;;;4.50;4.00;;;;;24.95;50.41;99933.50;5098763;27;45317;-47
2022/09/14 11:16:07;;;;;;;;;3.50;3.50;;;;;24.96;50.88;99932.50;5098203;27;46422;-47
2022/09/14 11:18:41;;;;;;;;;4.00;3.00;;;;;24.96;50.69;99932.50;5097947;27;45655;-50
2022/09/14 11:21:39;;;;;;;;;4.00;4.00;;;;;24.97;50.49;99928.88;5106202;27;45334;-52
2022/09/14 11:24:20;;;;;;;;;6.00;4.50;;;;;24.97;50.14;99926.22;5112597;27;45296;-46
2022/09/14 11:27:14;;;;;;;;;4.00;2.75;;;;;24.97;50.55;99926.22;5107458;27;45289;-49
2022/09/14 11:29:47;;;;;;;;;4.50;3.75;;;;;24.97;50.69;99939.47;5099373;27;45332;-46
2022/09/14 11:32:20;;;;;;;;;4.00;4.00;;;;;24.97;50.17;99931.50;5098588;27;45294;-54
2022/09/14 11:34:54;;;;;;;;;6.00;6.00;;;;;24.97;50.26;99936.81;5097516;27;45427;-45
2022/09/14 11:37:28;;;;;;;;;4.00;4.00;;;;;24.96;50.30;99932.50;5104789;27;45388;-49
2022/09/14 11:40:06;;;;;;;;;7.00;4.00;;;;;24.96;50.56;99935.16;5116679;27;45686;-47
2022/09/14 11:42:50;;;;;;;;;3.50;3.50;;;;;24.97;49.94;99939.47;5098397;27;45491;-49
2022/09/14 11:45:25;;;;;;;;;3.00;3.00;;;;;24.97;50.27;99939.47;5098440;27;45425;-47
2022/09/14 11:48:00;;;;;;;;;3.00;3.00;;;;;24.96;50.44;99940.47;5098180;27;45384;-49